Time;durP1;ratioP1;P1;durP2;ratioP2;P2;SDS_P1;SDS_P2;PMS_P1;PMS_P2;Temp;Humidity;BMP_temperature;BMP_pressure;BME280_temperature;BME280_humidity;BME280_pressure;Samples;Min_cycle;Max_cycle;Signal;HPM_P1;HPM_P2
2023/08/29 00:01:47;;;;;;;0.70;0.60;;;18.10;62.60;19.80;101150.00;;;;5038424;28;20212;-79
2023/08/29 00:04:14;;;;;;;0.55;0.45;;;18.10;62.60;19.80;101135.00;;;;5048447;28;20681;-79
2023/08/29 00:06:41;;;;;;;0.50;0.40;;;18.10;62.60;19.80;101138.00;;;;5049400;28;20246;-79
2023/08/29 00:09:08;;;;;;;1.17;0.80;;;18.10;62.60;19.80;101149.00;;;;5049076;28;20651;-79
2023/08/29 00:11:35;;;;;;;0.65;0.57;;;18.00;62.50;19.80;101147.00;;;;5049962;28;20188;-79
2023/08/29 00:14:03;;;;;;;0.57;0.50;;;18.00;62.50;19.70;101137.00;;;;5049750;28;20196;-79
2023/08/29 00:16:30;;;;;;;1.02;0.50;;;18.00;62.60;19.70;101127.00;;;;5047916;28;20231;-78
2023/08/29 00:18:58;;;;;;;1.95;0.57;;;18.00;62.70;19.70;101127.00;;;;5044805;28;20251;-79
2023/08/29 00:21:25;;;;;;;3.10;0.50;;;17.90;62.60;19.70;101124.00;;;;5048478;28;20203;-79
2023/08/29 00:23:52;;;;;;;0.80;0.50;;;17.90;62.70;19.70;101128.00;;;;5049400;28;20199;-79
2023/08/29 00:26:19;;;;;;;0.50;0.50;;;17.90;62.80;19.70;101114.00;;;;5044345;28;20196;-79
2023/08/29 00:28:46;;;;;;;1.08;0.60;;;17.90;62.80;19.60;101115.00;;;;5049420;28;20195;-79
2023/08/29 00:31:13;;;;;;;2.28;0.40;;;17.80;62.70;19.60;101130.00;;;;5048966;28;20207;-79
2023/08/29 00:33:40;;;;;;;2.00;0.40;;;17.80;62.80;19.60;101129.00;;;;5049296;28;20206;-79
2023/08/29 00:36:09;;;;;;;0.77;0.50;;;17.80;62.80;19.60;101126.00;;;;5048147;28;20667;-79
2023/08/29 00:38:36;;;;;;;1.27;0.50;;;17.80;62.80;19.50;101125.00;;;;5047012;28;20230;-79
2023/08/29 00:41:04;;;;;;;1.13;0.63;;;17.70;62.80;19.50;101125.00;;;;5049308;28;20196;-79
2023/08/29 00:43:31;;;;;;;0.80;0.50;;;17.70;62.90;19.50;101116.00;;;;5049343;28;20226;-79
2023/08/29 00:45:59;;;;;;;0.68;0.52;;;17.70;62.80;19.50;101110.00;;;;5044512;28;20197;-78
2023/08/29 00:48:34;;;;;;;1.52;0.60;;;17.70;62.80;19.40;101105.00;;;;5093155;27;1226386;-78
2023/08/29 00:51:02;;;;;;;0.80;0.40;;;17.70;62.80;19.40;101099.00;;;;5123685;28;20295;-79
2023/08/29 00:53:30;;;;;;;1.80;0.70;;;17.60;62.80;19.40;101103.00;;;;5118500;28;20223;-78
2023/08/29 00:55:57;;;;;;;1.05;0.60;;;17.60;62.80;19.40;101108.00;;;;5108573;28;20254;-78
2023/08/29 00:58:24;;;;;;;1.02;0.60;;;17.60;62.90;19.40;101111.00;;;;5107601;28;20726;-79
2023/08/29 01:00:51;;;;;;;2.15;0.40;;;17.50;63.50;19.30;101096.00;;;;5101530;28;20659;-79
2023/08/29 01:03:18;;;;;;;0.68;0.40;;;17.60;63.00;19.30;101106.00;;;;5095613;28;20189;-79
2023/08/29 01:05:47;;;;;;;0.50;0.40;;;17.60;63.10;19.30;101095.00;;;;5096683;28;20194;-79
2023/08/29 01:08:14;;;;;;;0.80;0.60;;;17.50;63.00;19.30;101101.00;;;;5096548;28;20225;-79
2023/08/29 01:10:55;;;;;;;0.98;0.47;;;17.50;63.00;19.20;101100.00;;;;5101137;28;20186;-79
2023/08/29 01:13:31;;;;;;;2.35;0.60;;;17.40;63.10;19.20;101104.00;;;;5098146;28;20647;-79
2023/08/29 01:16:03;;;;;;;1.75;0.50;;;17.50;63.20;19.20;101106.00;;;;5092859;28;20205;-79
2023/08/29 01:18:35;;;;;;;0.80;0.60;;;17.50;63.20;19.20;101105.00;;;;5094414;28;20194;-79
2023/08/29 01:21:19;;;;;;;0.80;0.52;;;17.40;63.10;19.10;101100.00;;;;5098734;28;20198;-79
2023/08/29 01:23:56;;;;;;;3.85;0.45;;;17.40;63.20;19.10;101095.00;;;;5088380;28;20584;-79
2023/08/29 01:26:26;;;;;;;0.98;0.40;;;17.40;63.30;19.20;101104.00;;;;5089648;28;20204;-79
2023/08/29 01:28:54;;;;;;;2.85;0.50;;;17.40;63.10;19.10;101103.00;;;;5105329;28;20263;-79
2023/08/29 01:31:22;;;;;;;1.02;0.82;;;17.40;63.10;19.10;101110.00;;;;5104494;28;20190;-78
2023/08/29 01:33:49;;;;;;;2.63;0.60;;;17.40;63.10;19.10;101116.00;;;;5104653;28;20194;-79
2023/08/29 01:36:16;;;;;;;0.70;0.50;;;17.30;63.10;19.10;101118.00;;;;5104714;28;20212;-79
2023/08/29 01:38:43;;;;;;;1.00;0.40;;;17.30;63.10;19.10;101117.00;;;;5101533;28;20186;-79
2023/08/29 01:41:10;;;;;;;1.38;0.55;;;17.30;63.20;19.10;101111.00;;;;5096213;28;20675;-79
2023/08/29 01:43:38;;;;;;;11.40;0.85;;;17.20;63.20;19.10;101106.00;;;;5105466;28;20205;-79
2023/08/29 01:46:05;;;;;;;0.85;0.47;;;17.20;63.20;19.00;101103.00;;;;5103410;28;20190;-79
2023/08/29 01:48:33;;;;;;;0.60;0.40;;;17.20;63.10;19.00;101102.00;;;;5103670;28;20233;-79
2023/08/29 01:51:00;;;;;;;1.45;0.60;;;17.20;63.20;19.00;101106.00;;;;5104722;28;20678;-79
2023/08/29 01:53:27;;;;;;;1.00;0.63;;;17.20;63.30;19.00;101111.00;;;;5101344;28;20206;-79
2023/08/29 01:55:57;;;;;;;1.83;0.47;;;17.20;63.40;19.00;101107.00;;;;5098635;28;20197;-79
2023/08/29 01:58:26;;;;;;;0.68;0.50;;;17.10;63.40;18.90;101100.00;;;;5086853;28;20218;-79
2023/08/29 02:00:55;;;;;;;0.63;0.50;;;17.10;63.40;18.90;101093.00;;;;5079127;28;20213;-79
2023/08/29 02:03:23;;;;;;;4.43;0.65;;;17.10;63.40;18.90;101096.00;;;;5087973;28;20205;-78
2023/08/29 02:05:50;;;;;;;0.70;0.60;;;17.10;63.40;18.90;101099.00;;;;5082989;28;20206;-79
2023/08/29 02:08:17;;;;;;;0.45;0.30;;;17.10;63.40;18.90;101105.00;;;;5088286;28;20275;-79
2023/08/29 02:10:44;;;;;;;0.80;0.68;;;17.10;63.50;18.80;101103.00;;;;5088002;28;20652;-79
2023/08/29 02:13:11;;;;;;;0.52;0.50;;;17.00;63.40;18.80;101107.00;;;;5075258;28;20206;-79
2023/08/29 02:15:38;;;;;;;0.98;0.35;;;17.00;63.30;18.80;101115.00;;;;5080944;28;20194;-79
2023/08/29 02:18:06;;;;;;;1.38;0.43;;;17.00;63.30;18.80;101119.00;;;;5089705;28;20198;-78
2023/08/29 02:20:35;;;;;;;1.10;0.50;;;17.00;63.30;18.80;101109.00;;;;5089799;28;20194;-79
2023/08/29 02:23:02;;;;;;;0.98;0.80;;;17.00;63.30;18.80;101111.00;;;;5088893;28;20194;-79
2023/08/29 02:25:30;;;;;;;0.43;0.32;;;16.90;63.20;18.70;101119.00;;;;5088244;28;20774;-79
2023/08/29 02:27:57;;;;;;;1.13;0.40;;;16.90;63.20;18.70;101124.00;;;;5089530;28;20261;-79
2023/08/29 02:30:24;;;;;;;0.70;0.57;;;16.90;63.30;18.70;101125.00;;;;5089661;28;20198;-79
2023/08/29 02:32:50;;;;;;;0.95;0.82;;;16.90;63.20;18.70;101116.00;;;;5086881;28;20202;-79
2023/08/29 02:35:19;;;;;;;1.67;0.40;;;16.80;63.20;18.70;101116.00;;;;5069699;28;20202;-79
2023/08/29 02:37:46;;;;;;;0.80;0.50;;;16.80;63.30;18.60;101126.00;;;;5081898;28;20194;-78
2023/08/29 02:40:13;;;;;;;0.60;0.40;;;16.80;63.30;18.60;101115.00;;;;5087991;28;21007;-79
2023/08/29 02:42:40;;;;;;;0.35;0.30;;;16.80;63.30;18.60;101124.00;;;;5091164;28;20214;-78
2023/08/29 02:45:08;;;;;;;0.82;0.40;;;16.80;63.40;18.60;101120.00;;;;5090166;28;20314;-79
2023/08/29 02:47:34;;;;;;;3.13;1.27;;;16.70;63.30;18.60;101121.00;;;;5090452;28;20229;-79
2023/08/29 02:50:03;;;;;;;0.68;0.38;;;16.70;63.30;18.50;101119.00;;;;5084488;28;20560;-78
2023/08/29 02:52:31;;;;;;;0.60;0.50;;;16.70;63.40;18.50;101113.00;;;;5089648;28;20190;-79
2023/08/29 02:54:58;;;;;;;0.70;0.60;;;16.70;63.40;18.50;101123.00;;;;5082324;28;20207;-78
2023/08/29 02:57:25;;;;;;;0.70;0.40;;;16.70;63.40;18.50;101128.00;;;;5069646;28;20205;-79
2023/08/29 02:59:52;;;;;;;1.13;0.50;;;16.70;63.40;18.50;101135.00;;;;5079193;28;20730;-79
2023/08/29 03:02:19;;;;;;;1.15;0.60;;;16.60;63.40;18.50;101131.00;;;;5087323;28;20221;-79
2023/08/29 03:04:46;;;;;;;1.60;0.73;;;16.70;63.50;18.40;101133.00;;;;5088925;28;20547;-78
2023/08/29 03:07:13;;;;;;;0.40;0.30;;;16.60;63.40;18.40;101138.00;;;;5087420;28;20207;-79
2023/08/29 03:09:41;;;;;;;0.57;0.43;;;16.60;63.40;18.40;101136.00;;;;5088323;28;20206;-78
2023/08/29 03:12:08;;;;;;;0.80;0.50;;;16.60;63.50;18.40;101136.00;;;;5088659;28;20209;-79
2023/08/29 03:14:35;;;;;;;0.60;0.40;;;16.60;64.20;18.40;101137.00;;;;5089476;28;20209;-79
2023/08/29 03:17:03;;;;;;;0.65;0.45;;;16.60;63.50;18.40;101137.00;;;;5089023;28;20204;-79
2023/08/29 03:19:30;;;;;;;0.68;0.50;;;16.60;63.50;18.30;101137.00;;;;5088814;28;21065;-79
2023/08/29 03:21:57;;;;;;;0.70;0.50;;;16.50;63.50;18.30;101140.00;;;;5086111;28;20194;-79
2023/08/29 03:24:24;;;;;;;0.88;0.63;;;16.50;63.60;18.30;101136.00;;;;5073233;28;20206;-79
2023/08/29 03:26:52;;;;;;;0.60;0.50;;;16.50;63.60;18.30;101134.00;;;;5089139;28;20202;-78
2023/08/29 03:29:19;;;;;;;0.50;0.43;;;16.50;63.60;18.30;101125.00;;;;5081530;28;20700;-78
2023/08/29 03:31:46;;;;;;;0.50;0.40;;;16.50;63.70;18.30;101136.00;;;;5081100;28;20202;-78
2023/08/29 03:34:13;;;;;;;0.55;0.43;;;16.50;63.70;18.30;101143.00;;;;5084603;28;20583;-79
2023/08/29 03:36:40;;;;;;;2.75;0.65;;;16.50;63.70;18.30;101136.00;;;;5089690;28;20281;-79
2023/08/29 03:39:07;;;;;;;1.98;0.50;;;16.50;63.60;18.30;101134.00;;;;5078623;28;20996;-79
2023/08/29 03:41:34;;;;;;;2.05;0.70;;;16.40;63.60;18.20;101136.00;;;;5083649;28;20202;-78
2023/08/29 03:44:04;;;;;;;0.88;0.50;;;16.40;63.60;18.20;101135.00;;;;5089491;28;20201;-78
2023/08/29 03:46:31;;;;;;;0.77;0.47;;;16.40;63.60;18.20;101138.00;;;;5088944;28;20206;-79
2023/08/29 03:48:58;;;;;;;0.70;0.60;;;16.40;63.70;18.20;101130.00;;;;5089790;28;20234;-79
2023/08/29 03:51:25;;;;;;;1.35;0.70;;;16.40;63.80;18.20;101130.00;;;;5088421;28;20202;-79
2023/08/29 03:53:52;;;;;;;2.35;0.50;;;16.40;63.70;18.20;101117.00;;;;5086991;28;20194;-79
2023/08/29 03:56:19;;;;;;;0.98;0.50;;;16.40;63.70;18.20;101117.00;;;;5084492;28;20656;-78
2023/08/29 03:58:46;;;;;;;0.75;0.60;;;16.30;63.60;18.20;101116.00;;;;5072475;28;20229;-79
2023/08/29 04:01:14;;;;;;;2.92;1.10;;;16.40;63.70;18.10;101117.00;;;;5085515;28;20285;-79
2023/08/29 04:03:42;;;;;;;0.88;0.60;;;16.30;63.70;18.10;101120.00;;;;5089376;28;20656;-78
2023/08/29 04:06:11;;;;;;;1.23;0.55;;;16.30;63.70;18.10;101116.00;;;;5073909;28;20217;-78
2023/08/29 04:08:38;;;;;;;0.60;0.50;;;16.30;63.70;18.10;101120.00;;;;5073378;28;20594;-79
2023/08/29 04:11:05;;;;;;;0.80;0.50;;;16.30;63.70;18.10;101119.00;;;;5077287;28;20221;-78
2023/08/29 04:13:34;;;;;;;0.60;0.40;;;16.30;63.70;18.10;101113.00;;;;5082988;28;20591;-79
2023/08/29 04:16:04;;;;;;;0.75;0.52;;;16.30;63.70;18.00;101115.00;;;;5077351;28;20240;-79
2023/08/29 04:18:34;;;;;;;1.08;0.50;;;16.30;63.70;18.00;101112.00;;;;5072377;28;20210;-79
2023/08/29 04:21:02;;;;;;;2.35;0.80;;;16.30;63.80;18.00;101114.00;;;;5083888;28;20197;-79
2023/08/29 04:23:28;;;;;;;1.17;0.57;;;16.20;63.70;18.00;101112.00;;;;5081144;28;20198;-78
2023/08/29 04:26:00;;;;;;;0.60;0.35;;;16.20;63.60;18.00;101101.00;;;;5080131;28;20198;-79
2023/08/29 04:28:27;;;;;;;2.00;0.82;;;16.20;63.70;18.00;101109.00;;;;5071128;28;20602;-79
2023/08/29 04:30:55;;;;;;;3.42;0.50;;;16.10;63.60;18.00;101096.00;;;;5087715;28;20189;-78
2023/08/29 04:33:22;;;;;;;0.75;0.52;;;16.10;63.60;18.00;101092.00;;;;5078351;28;21148;-79
2023/08/29 04:35:52;;;;;;;0.75;0.60;;;16.10;63.70;17.90;101082.00;;;;5081267;28;20202;-79
2023/08/29 04:38:19;;;;;;;1.42;0.98;;;16.10;63.70;17.90;101079.00;;;;5078440;28;20198;-78
2023/08/29 04:40:46;;;;;;;2.38;0.80;;;16.10;63.80;17.90;101077.00;;;;5079901;28;21719;-78
2023/08/29 04:43:13;;;;;;;1.15;0.77;;;16.10;63.70;17.90;101072.00;;;;5078414;28;20544;-79
2023/08/29 04:45:42;;;;;;;1.77;1.00;;;16.10;63.80;17.90;101077.00;;;;5080714;28;20203;-79
2023/08/29 04:48:09;;;;;;;1.90;0.73;;;16.00;63.80;17.90;101071.00;;;;5080443;28;20719;-79
2023/08/29 04:50:36;;;;;;;0.85;0.68;;;16.00;63.70;17.80;101073.00;;;;5080935;28;20202;-79
2023/08/29 04:53:05;;;;;;;0.90;0.68;;;16.00;63.70;17.80;101069.00;;;;5080694;28;20649;-79
2023/08/29 04:55:33;;;;;;;1.00;0.80;;;16.00;63.80;17.80;101072.00;;;;5080180;28;20206;-79
2023/08/29 04:58:00;;;;;;;2.17;1.10;;;16.00;63.80;17.80;101074.00;;;;5080877;28;20198;-79
2023/08/29 05:00:28;;;;;;;1.83;1.17;;;16.00;63.80;17.80;101066.00;;;;5083471;28;20206;-79
2023/08/29 05:02:56;;;;;;;1.88;1.15;;;16.00;64.00;17.80;101066.00;;;;5080565;28;20205;-79
2023/08/29 05:05:23;;;;;;;5.57;1.20;;;15.90;63.90;17.80;101070.00;;;;5075809;28;20202;-79
2023/08/29 05:07:50;;;;;;;1.23;0.80;;;15.90;63.90;17.80;101057.00;;;;5082649;28;20218;-78
2023/08/29 05:10:18;;;;;;;1.45;1.02;;;15.90;63.90;17.70;101058.00;;;;5078346;28;20209;-79
2023/08/29 05:12:45;;;;;;;2.55;1.60;;;15.90;64.00;17.80;101063.00;;;;5079086;28;20844;-79
2023/08/29 05:15:12;;;;;;;2.10;1.05;;;15.90;64.70;17.70;101054.00;;;;5078038;28;20206;-79
2023/08/29 05:17:39;;;;;;;1.45;0.95;;;15.90;64.00;17.70;101062.00;;;;5080240;28;20714;-82
2023/08/29 05:20:09;;;;;;;2.33;1.02;;;15.90;64.00;17.70;101056.00;;;;5080772;28;20587;-78
2023/08/29 05:22:36;;;;;;;1.35;1.02;;;15.90;64.10;17.70;101066.00;;;;5080181;28;20244;-84
2023/08/29 05:25:05;;;;;;;1.33;0.93;;;15.90;64.10;17.70;101064.00;;;;5084268;28;20190;-80
2023/08/29 05:27:33;;;;;;;1.85;1.38;;;15.90;64.20;17.70;101064.00;;;;5080593;28;20195;-78
2023/08/29 05:30:00;;;;;;;2.05;1.20;;;15.90;64.40;17.80;101056.00;;;;5081751;28;20212;-80
2023/08/29 05:32:27;;;;;;;1.67;1.30;;;15.90;64.40;17.80;101065.00;;;;5085609;28;20206;-79
2023/08/29 05:34:54;;;;;;;1.83;1.02;;;15.90;64.50;17.80;101071.00;;;;5085649;28;20212;-80
2023/08/29 05:37:21;;;;;;;2.85;1.40;;;15.90;64.50;17.80;101067.00;;;;5085643;28;20920;-80
2023/08/29 05:39:49;;;;;;;1.83;1.20;;;16.00;64.60;17.80;101064.00;;;;5087508;28;20206;-80
2023/08/29 05:42:16;;;;;;;1.85;1.23;;;16.00;64.60;17.80;101060.00;;;;5085307;28;20225;-80
2023/08/29 05:44:44;;;;;;;1.58;1.05;;;16.00;64.70;17.90;101056.00;;;;5092184;28;20194;-81
2023/08/29 05:47:11;;;;;;;0.73;0.63;;;16.00;64.80;17.90;101058.00;;;;5091033;28;20213;-80
2023/08/29 05:49:38;;;;;;;1.83;1.15;;;16.00;64.80;18.00;101058.00;;;;5073748;28;20250;-80
2023/08/29 05:52:06;;;;;;;2.15;1.00;;;16.10;65.00;18.00;101053.00;;;;5081384;28;20191;-79
2023/08/29 05:54:36;;;;;;;1.60;1.10;;;16.10;65.10;18.10;101056.00;;;;5089996;28;20248;-82
2023/08/29 05:57:03;;;;;;;2.30;1.02;;;16.20;65.10;18.10;101048.00;;;;5076312;28;20198;-83
2023/08/29 05:59:31;;;;;;;2.10;1.52;;;16.20;65.20;18.20;101059.00;;;;5086199;28;20244;-80
2023/08/29 06:01:59;;;;;;;3.17;1.08;;;16.30;65.30;18.20;101054.00;;;;5084040;28;20583;-79
2023/08/29 06:04:27;;;;;;;1.15;0.75;;;16.30;65.40;18.30;101054.00;;;;5087294;28;20668;-79
2023/08/29 06:06:54;;;;;;;2.00;0.93;;;16.40;65.60;18.40;101042.00;;;;5088306;28;20640;-79
2023/08/29 06:09:21;;;;;;;1.27;1.17;;;16.50;65.70;18.50;101048.00;;;;5090134;28;20276;-79
2023/08/29 06:11:48;;;;;;;1.20;1.00;;;16.60;65.90;18.60;101049.00;;;;5085415;28;20206;-80
2023/08/29 06:14:15;;;;;;;1.95;1.13;;;16.60;66.00;18.60;101054.00;;;;5073402;28;20205;-79
2023/08/29 06:16:42;;;;;;;3.47;0.80;;;16.70;66.20;18.70;101047.00;;;;5076010;28;20211;-79
2023/08/29 06:19:10;;;;;;;1.52;1.00;;;16.80;66.40;18.80;101056.00;;;;5081617;28;20549;-79
2023/08/29 06:21:38;;;;;;;1.30;1.20;;;16.90;66.50;18.90;101065.00;;;;5091804;28;20194;-79
2023/08/29 06:24:07;;;;;;;1.45;1.02;;;17.00;66.60;19.00;101068.00;;;;5090986;28;20209;-80
2023/08/29 06:26:34;;;;;;;1.45;0.80;;;17.10;66.80;19.10;101069.00;;;;5090210;28;20559;-79
2023/08/29 06:29:01;;;;;;;1.90;0.90;;;17.20;66.80;19.20;101070.00;;;;5090400;28;20230;-79
2023/08/29 06:31:28;;;;;;;2.10;1.00;;;17.30;66.70;19.30;101069.00;;;;5090533;28;20584;-79
2023/08/29 06:33:56;;;;;;;3.08;1.05;;;17.40;66.60;19.30;101072.00;;;;5090013;28;20202;-79
2023/08/29 06:36:24;;;;;;;2.25;0.82;;;17.50;66.60;19.40;101068.00;;;;5085422;28;20688;-79
2023/08/29 06:38:51;;;;;;;1.33;1.08;;;17.60;66.50;19.40;101068.00;;;;5089082;28;20656;-79
2023/08/29 06:41:18;;;;;;;1.73;1.17;;;17.70;66.40;19.50;101075.00;;;;5080887;28;20187;-79
2023/08/29 06:43:46;;;;;;;1.90;1.17;;;17.70;66.30;19.60;101065.00;;;;5089177;28;20206;-80
2023/08/29 06:46:13;;;;;;;1.70;1.30;;;17.80;66.40;19.60;101069.00;;;;5088851;28;20202;-79
2023/08/29 06:48:40;;;;;;;1.10;0.80;;;17.80;66.30;19.70;101070.00;;;;5089639;28;20222;-80
2023/08/29 06:51:07;;;;;;;1.77;1.17;;;17.90;66.30;19.70;101068.00;;;;5077482;28;20208;-79
2023/08/29 06:53:36;;;;;;;1.42;0.80;;;17.90;66.20;19.70;101075.00;;;;5084838;28;20210;-79
2023/08/29 06:56:04;;;;;;;1.10;1.00;;;18.00;66.30;19.80;101076.00;;;;5085447;28;20645;-79
2023/08/29 06:58:31;;;;;;;1.45;0.85;;;18.00;66.20;19.80;101071.00;;;;5089584;28;20377;-79
2023/08/29 07:00:58;;;;;;;1.00;0.85;;;18.10;66.30;19.90;101073.00;;;;5090349;28;20217;-79
2023/08/29 07:03:24;;;;;;;2.10;1.00;;;18.10;66.30;19.90;101071.00;;;;5089723;28;20198;-79
2023/08/29 07:05:51;;;;;;;1.80;1.05;;;18.20;66.30;20.00;101072.00;;;;5079542;28;20239;-79
2023/08/29 07:08:18;;;;;;;2.83;1.02;;;18.20;66.30;20.10;101079.00;;;;5089917;28;20205;-79
2023/08/29 07:10:48;;;;;;;1.00;0.90;;;18.30;66.40;20.10;101085.00;;;;5089444;28;20210;-79
2023/08/29 07:13:16;;;;;;;1.58;0.90;;;18.30;66.50;20.20;101075.00;;;;5087770;28;20205;-80
2023/08/29 07:15:43;;;;;;;1.05;0.88;;;18.40;66.50;20.20;101079.00;;;;5083816;28;20668;-79
2023/08/29 07:18:10;;;;;;;1.50;1.23;;;18.40;66.60;20.30;101071.00;;;;5073621;28;20570;-80
2023/08/29 07:20:37;;;;;;;1.45;1.05;;;18.50;66.70;20.40;101067.00;;;;5089229;28;20670;-79
2023/08/29 07:23:05;;;;;;;2.53;1.02;;;18.60;66.80;20.50;101070.00;;;;5088927;28;20672;-79
2023/08/29 07:25:39;;;;;;;1.77;1.10;;;18.70;67.00;20.50;101070.00;;;;5089694;28;20202;-80
2023/08/29 07:28:10;;;;;;;0.90;0.77;;;18.70;67.20;20.60;101072.00;;;;5088720;28;20198;-79
2023/08/29 07:30:44;;;;;;;1.60;1.20;;;18.80;67.10;20.70;101073.00;;;;5089008;28;20239;-79
2023/08/29 07:33:12;;;;;;;1.17;0.90;;;18.90;67.20;20.80;101068.00;;;;5089707;28;20254;-79
2023/08/29 07:35:39;;;;;;;1.83;0.98;;;19.00;67.20;20.90;101052.00;;;;5089029;28;20252;-80
2023/08/29 07:38:07;;;;;;;1.10;1.00;;;19.10;67.20;20.90;101066.00;;;;5089206;28;20198;-79
2023/08/29 07:40:34;;;;;;;1.30;1.00;;;19.10;67.00;21.00;101069.00;;;;5089339;28;20652;-79
2023/08/29 07:43:04;;;;;;;1.10;1.00;;;19.20;67.00;21.00;101066.00;;;;5080275;28;20260;-79
2023/08/29 07:45:34;;;;;;;1.65;1.15;;;19.30;67.00;21.10;101072.00;;;;5088362;28;20198;-80
2023/08/29 07:48:01;;;;;;;1.38;0.88;;;19.40;66.90;21.20;101074.00;;;;5088576;28;20218;-79
2023/08/29 07:50:29;;;;;;;1.05;0.88;;;19.40;66.80;21.20;101065.00;;;;5089419;28;20229;-80
2023/08/29 07:52:57;;;;;;;1.38;1.00;;;19.50;66.70;21.30;101065.00;;;;5088429;28;20198;-79
2023/08/29 07:55:24;;;;;;;1.67;1.23;;;19.50;66.80;21.40;101063.00;;;;5087551;28;20284;-80
2023/08/29 07:57:51;;;;;;;1.38;1.00;;;19.70;66.70;21.40;101077.00;;;;5087342;28;20206;-79
2023/08/29 08:00:19;;;;;;;2.38;1.25;;;19.70;66.60;21.50;101070.00;;;;5075209;28;20214;-80
2023/08/29 08:02:47;;;;;;;2.80;1.20;;;19.80;66.50;21.50;101065.00;;;;5088757;28;20209;-79
2023/08/29 08:05:16;;;;;;;1.35;1.08;;;19.80;66.40;21.50;101067.00;;;;5088624;28;20202;-80
2023/08/29 08:07:45;;;;;;;2.45;1.27;;;19.80;66.40;21.60;101064.00;;;;5088009;28;20194;-80
2023/08/29 08:10:15;;;;;;;1.35;0.98;;;19.90;66.40;21.70;101071.00;;;;5088246;28;20703;-79
2023/08/29 08:12:43;;;;;;;2.33;1.20;;;20.00;66.40;21.70;101070.00;;;;5080478;28;20202;-79
2023/08/29 08:15:11;;;;;;;1.85;1.55;;;20.00;66.50;21.80;101067.00;;;;5087176;28;20213;-79
2023/08/29 08:17:38;;;;;;;2.95;1.40;;;20.10;66.50;21.80;101075.00;;;;5075997;28;20202;-80
2023/08/29 08:20:09;;;;;;;2.33;1.25;;;20.10;66.30;21.90;101072.00;;;;5088679;28;20202;-79
2023/08/29 08:22:36;;;;;;;2.40;1.23;;;20.20;66.30;21.90;101067.00;;;;5087612;28;20281;-79
2023/08/29 08:25:04;;;;;;;1.67;1.30;;;20.20;66.20;22.00;101071.00;;;;5088980;28;20202;-79
2023/08/29 08:27:31;;;;;;;1.55;1.30;;;20.30;66.20;22.10;101064.00;;;;5088036;28;20202;-80
2023/08/29 08:29:58;;;;;;;1.65;1.45;;;20.40;66.30;22.10;101071.00;;;;5088141;28;20225;-80
2023/08/29 08:32:25;;;;;;;3.03;1.17;;;20.40;66.20;22.20;101071.00;;;;5088036;28;20202;-79
2023/08/29 08:34:52;;;;;;;1.75;1.42;;;20.50;66.10;22.20;101070.00;;;;5088827;28;20202;-79
2023/08/29 08:37:20;;;;;;;5.28;1.38;;;20.50;66.00;22.30;101071.00;;;;5088095;28;20198;-80
2023/08/29 08:39:47;;;;;;;1.17;1.08;;;20.60;66.10;22.40;101072.00;;;;5088180;28;20660;-79
2023/08/29 08:42:16;;;;;;;1.27;1.08;;;20.70;66.20;22.40;101070.00;;;;5086429;28;20443;-80
2023/08/29 08:44:44;;;;;;;1.70;1.50;;;20.70;66.10;22.50;101071.00;;;;5087122;28;20198;-80
2023/08/29 08:47:12;;;;;;;1.38;1.13;;;20.80;66.00;22.60;101075.00;;;;5087670;28;20202;-79
2023/08/29 08:49:40;;;;;;;1.50;1.40;;;20.90;66.00;22.60;101072.00;;;;5087915;28;20229;-79
2023/08/29 08:52:11;;;;;;;1.95;1.40;;;20.90;65.90;22.60;101077.00;;;;5088176;28;20229;-79
2023/08/29 08:54:39;;;;;;;2.90;1.33;;;21.00;66.40;22.70;101084.00;;;;5087356;28;20190;-80
2023/08/29 08:57:07;;;;;;;2.22;1.45;;;21.00;65.40;22.70;101083.00;;;;5088452;28;20202;-79
2023/08/29 08:59:34;;;;;;;3.00;1.58;;;21.10;65.30;22.70;101078.00;;;;5088550;28;20206;-80
2023/08/29 09:02:01;;;;;;;2.00;1.30;;;21.10;65.10;22.80;101079.00;;;;5085350;28;20195;-80
2023/08/29 09:04:28;;;;;;;1.95;1.52;;;21.20;65.20;22.80;101078.00;;;;5082573;28;20589;-80
2023/08/29 09:06:56;;;;;;;1.90;1.70;;;21.20;65.10;22.90;101075.00;;;;5082743;28;20656;-80
2023/08/29 09:09:23;;;;;;;2.10;1.42;;;21.30;65.10;22.90;101077.00;;;;5084974;28;20217;-79
2023/08/29 09:11:57;;;;;;;2.42;1.80;;;21.30;65.20;23.00;101073.00;;;;5066508;28;20343;-79
2023/08/29 09:14:26;;;;;;;3.72;1.60;;;21.40;65.30;23.10;101075.00;;;;5084179;28;20205;-80
2023/08/29 09:16:57;;;;;;;1.65;1.55;;;21.40;65.40;23.20;101073.00;;;;5087598;28;20198;-79
2023/08/29 09:19:25;;;;;;;2.00;1.75;;;21.50;65.20;23.30;101074.00;;;;5085699;28;20209;-81
2023/08/29 09:21:53;;;;;;;1.75;1.40;;;21.60;65.10;23.40;101074.00;;;;5087779;28;20202;-80
2023/08/29 09:24:34;;;;;;;3.20;1.13;;;21.70;65.00;23.40;101080.00;;;;5085339;28;20204;-81
2023/08/29 09:27:08;;;;;;;2.13;1.17;;;21.80;64.90;23.50;101075.00;;;;5087261;28;20194;-80
2023/08/29 09:29:36;;;;;;;2.92;1.65;;;21.90;64.90;23.60;101077.00;;;;5084801;28;20221;-81
2023/08/29 09:32:14;;;;;;;1.10;1.05;;;22.00;64.80;23.60;101077.00;;;;5090145;28;20552;-80
2023/08/29 09:34:41;;;;;;;2.30;1.40;;;22.00;64.30;23.80;101080.00;;;;5091251;28;20247;-81
2023/08/29 09:37:10;;;;;;;2.35;1.27;;;22.10;64.20;23.80;101077.00;;;;5088937;28;20198;-80
2023/08/29 09:39:39;;;;;;;4.75;1.60;;;22.20;64.20;23.90;101086.00;;;;5084287;28;20198;-80
2023/08/29 09:42:11;;;;;;;2.03;1.40;;;22.20;64.00;23.80;101080.00;;;;5087030;28;20194;-81
2023/08/29 09:44:40;;;;;;;1.75;1.27;;;22.30;63.60;23.90;101075.00;;;;5090415;28;20198;-80
2023/08/29 09:47:10;;;;;;;2.40;1.38;;;22.40;63.40;23.90;101073.00;;;;5084753;28;20195;-80
2023/08/29 09:49:44;;;;;;;2.47;1.23;;;22.40;63.20;23.90;101069.00;;;;5079848;28;20724;-81
2023/08/29 09:52:11;;;;;;;1.73;1.40;;;22.40;63.10;24.00;101067.00;;;;5077548;28;20209;-80
2023/08/29 09:54:45;;;;;;;2.28;1.30;;;22.40;63.10;23.90;101072.00;;;;5084760;28;20202;-80
2023/08/29 09:57:16;;;;;;;1.52;1.42;;;22.40;62.90;24.00;101062.00;;;;5091234;28;20209;-80
2023/08/29 09:59:44;;;;;;;1.92;1.65;;;22.50;63.20;24.20;101056.00;;;;5089522;28;20719;-80
2023/08/29 10:02:14;;;;;;;3.28;1.38;;;22.50;63.30;24.20;101057.00;;;;5091401;28;20621;-80
2023/08/29 10:04:46;;;;;;;1.75;1.60;;;22.60;63.40;24.30;101052.00;;;;5085807;28;20194;-80
2023/08/29 10:07:16;;;;;;;2.20;1.60;;;22.60;63.30;24.40;101053.00;;;;5076499;28;20190;-80
2023/08/29 10:09:44;;;;;;;4.03;1.65;;;22.80;63.30;24.60;101053.00;;;;5090262;28;20222;-80
2023/08/29 10:12:14;;;;;;;2.78;1.83;;;22.90;63.40;24.70;101051.00;;;;5091037;28;20198;-80
2023/08/29 10:14:43;;;;;;;2.58;1.88;;;23.00;63.20;24.70;101037.00;;;;5086251;28;20686;-80
2023/08/29 10:17:12;;;;;;;3.70;2.10;;;23.10;62.80;24.80;101054.00;;;;5083545;28;20372;-80
2023/08/29 10:19:40;;;;;;;2.20;1.52;;;23.20;62.40;24.80;101050.00;;;;5082221;28;20213;-79
2023/08/29 10:22:08;;;;;;;2.33;1.65;;;23.30;62.00;24.90;101049.00;;;;5086345;28;20563;-79
2023/08/29 10:24:37;;;;;;;1.45;1.35;;;23.30;61.80;25.00;101046.00;;;;5086373;28;20201;-80
2023/08/29 10:27:05;;;;;;;2.47;2.08;;;23.40;61.80;25.10;101047.00;;;;5085254;28;20202;-80
2023/08/29 10:29:33;;;;;;;1.75;1.48;;;23.50;61.70;25.10;101044.00;;;;5086356;28;20222;-80
2023/08/29 10:32:03;;;;;;;2.13;1.33;;;23.50;61.60;25.20;101038.00;;;;5075860;28;20198;-79
2023/08/29 10:34:31;;;;;;;1.33;1.23;;;23.60;61.40;25.30;101042.00;;;;5084882;28;20203;-80
2023/08/29 10:36:59;;;;;;;2.20;1.70;;;23.70;61.20;25.30;101040.00;;;;5085898;28;20195;-79
2023/08/29 10:39:27;;;;;;;1.88;1.42;;;23.80;61.10;25.40;101034.00;;;;5086286;28;20202;-79
2023/08/29 10:41:57;;;;;;;2.28;1.58;;;23.80;61.00;25.40;101034.00;;;;5083865;28;20236;-80
2023/08/29 10:44:40;;;;;;;1.85;1.40;;;23.90;60.80;25.50;101032.00;;;;5084421;28;20210;-80
2023/08/29 10:47:19;;;;;;;2.00;1.48;;;23.90;60.50;25.40;101026.00;;;;5082515;28;20206;-80
2023/08/29 10:49:47;;;;;;;1.85;1.40;;;23.90;59.80;25.50;101032.00;;;;5083743;28;20303;-81
2023/08/29 10:52:14;;;;;;;3.58;1.25;;;24.00;60.00;25.50;101031.00;;;;5082620;28;20194;-80